Date,TemperatureHighF,TemperatureAvgF,TemperatureLowF,DewpointHighF,DewpointAvgF,DewpointLowF,HumidityHigh,HumidityAvg,HumidityLow,PressureMaxIn,PressureMinIn,WindSpeedMaxMPH,WindSpeedAvgMPH,GustSpeedMaxMPH,PrecipitationSumIn
2013-4-11,-200,0,200,-100,-100,-100,0,0,100,30.03,30.00,17,13,22,0.00
2013-4-15,55,50,46,39,37,36,70,63,47,29.97,29.86,22,14,32,0.00
2013-4-16,66,54,43,43,37,28,81,58,25,30.19,29.97,17,10,25,0.00
2013-4-17,72,58,43,45,39,30,100,54,22,30.27,30.16,14,6,17,0.00
2013-4-18,79,62,45,50,42,-100,100,54,25,30.26,30.15,12,3,16,0.00
2013-4-19,81,64,45,68,51,27,100,68,32,30.22,30.08,21,7,28,0.00
2013-4-20,82,66,54,55,46,39,100,52,21,30.12,29.96,16,7,23,0.00
2013-4-21,88,70,50,61,49,-6,100,56,8,30.03,29.92,10,2,15,0.00
2013-4-22,90,71,52,61,50,36,100,58,14,29.97,29.83,9,1,0,0.00
2013-4-23,84,66,46,57,44,-9,100,56,8,29.92,29.84,10,3,16,0.00
2013-4-24,66,51,45,66,42,-53,100,83,3,29.95,29.83,16,4,22,0.00
2013-4-25,66,52,48,64,49,-2,100,94,10,30.11,29.95,12,2,16,0.00
2013-4-26,72,56,45,72,43,-17,100,77,5,30.21,30.12,12,3,17,0.00
2013-4-27,77,59,46,68,38,-8,100,53,9,30.21,30.06,9,3,0,0.00
2013-4-28,86,66,43,70,37,-24,100,39,2,30.06,29.88,12,3,0,0.00
2013-4-29,88,72,61,54,52,48,67,49,31,29.90,29.79,21,10,25,0.00
2013-4-30,82,68,55,52,45,37,72,46,24,29.88,29.79,20,12,27,0.00
2013-5-1,88,72,57,50,30,21,62,23,10,30.09,29.87,13,5,20,0.00
2013-5-2,90,70,46,54,42,34,100,47,14,30.15,30.07,9,2,0,0.00
2013-5-3,91,70,46,55,46,39,100,50,18,30.08,29.80,10,1,16,0.00
2013-5-4,90,69,48,61,48,36,100,60,15,29.81,29.56,15,-3,24,0.00
2013-5-5,63,57,52,63,56,37,100,98,50,29.83,29.62,15,5,27,0.00
2013-5-6,70,61,52,66,51,-29,100,76,2,29.96,29.82,12,2,17,0.00
2013-5-7,72,60,48,68,53,9,100,80,15,30.04,29.96,10,3,15,0.00
2013-5-8,66,56,52,66,37,-31,100,64,2,30.12,30.03,10,3,16,0.00
2013-5-9,73,57,46,73,44,-24,100,76,3,30.16,30.06,13,4,17,0.00
2013-5-10,77,60,50,75,38,-100,100,62,7,30.17,30.08,15,3,21,0.00
2013-5-11,86,68,46,72,47,-100,100,56,2,30.14,30.03,12,4,18,0.00
2013-5-12,84,67,46,75,48,-9,100,58,7,30.13,30.01,14,4,20,0.00
2013-5-13,88,68,48,72,45,-42,100,50,12,30.06,29.92,20,7,28,0.00
2013-5-14,86,71,55,64,48,10,100,49,16,29.96,29.87,16,10,21,0.00
2013-5-15,79,64,46,61,45,-2,100,55,11,30.01,29.96,18,10,25,0.00
2013-5-16,72,59,55,64,39,-100,100,79,49,30.00,29.92,14,10,20,0.00
2013-5-17,73,60,50,57,41,-100,100,61,5,30.06,29.95,14,8,17,0.00
2013-5-18,79,64,46,59,50,45,100,66,33,30.11,30.04,17,10,27,0.00
2013-5-19,86,70,55,54,48,39,87,51,21,30.13,29.96,15,8,22,0.00
2013-5-20,90,72,54,57,44,-100,100,46,16,30.01,29.88,12,5,24,0.00
2013-5-21,70,58,50,52,39,-100,100,58,40,29.99,29.90,22,12,33,0.00
2013-5-22,66,55,46,45,38,32,81,53,31,30.03,29.90,25,16,38,0.00
2013-5-23,72,58,46,48,44,36,100,62,26,30.00,29.89,18,11,31,0.00
2013-5-24,75,61,48,46,44,37,93,57,25,29.99,29.90,16,10,24,0.00
2013-5-25,75,61,45,57,46,27,100,60,25,30.02,29.93,21,8,28,0.00
2013-5-26,73,64,54,63,50,21,100,64,27,30.10,30.02,16,8,27,0.00
2013-5-27,63,58,52,63,49,-44,100,80,7,30.10,29.99,10,5,16,0.00
2013-5-28,77,65,55,70,41,-11,100,50,4,30.00,29.90,10,3,16,0.00
2013-5-29,79,65,55,66,52,9,100,67,12,29.95,29.88,22,10,28,0.00
2013-5-30,81,66,54,57,48,41,100,59,25,29.98,29.91,18,12,24,0.00
2013-5-31,91,72,57,54,48,41,71,46,18,30.01,29.90,20,11,23,0.00
2013-6-1,91,76,63,55,49,45,55,39,27,29.92,29.78,20,12,27,0.00
2013-6-2,88,72,61,57,52,48,77,50,31,29.79,29.63,18,8,24,0.00
2013-6-3,72,61,52,68,56,25,100,87,32,29.88,29.70,14,5,23,0.00
2013-6-4,70,58,52,70,55,16,100,93,19,29.96,29.86,16,4,21,0.00
2013-6-5,75,60,52,73,57,41,100,92,58,29.99,29.90,15,4,23,0.00
2013-6-6,81,61,52,73,48,-53,100,73,7,29.95,29.83,14,4,18,0.00
2013-6-7,93,69,50,75,42,7,100,42,15,29.88,29.72,10,2,16,0.00
2013-6-8,93,72,55,73,61,21,100,73,21,29.84,29.68,16,5,25,0.00
2013-6-9,68,60,54,68,58,7,100,94,12,29.88,29.83,14,5,21,0.00
2013-6-10,61,58,55,61,35,-2,100,54,8,29.96,29.78,8,2,0,0.00
2013-6-11,79,66,52,73,45,1,100,56,12,29.98,29.87,13,3,17,0.00
2013-6-12,82,68,55,52,47,39,87,50,27,29.98,29.89,21,12,30,0.00
2013-6-13,82,66,54,50,46,39,71,50,21,30.08,29.97,18,12,27,0.00
2013-6-14,88,71,57,54,48,41,87,48,19,30.01,29.79,16,7,18,0.00
2013-6-15,82,66,48,64,53,39,100,70,27,29.97,29.82,13,4,18,0.00
2013-6-16,88,70,48,64,50,37,100,54,24,30.06,29.96,17,8,23,0.00
2013-6-17,82,70,52,63,54,27,100,59,37,30.07,29.98,16,-16,22,0.00
2013-6-18,73,64,54,61,50,43,100,66,33,30.00,29.94,18,12,29,0.00
2013-6-19,75,66,52,57,50,45,100,60,35,30.04,29.98,17,12,28,0.00
2013-6-20,81,63,55,52,49,41,82,63,24,30.00,29.92,18,13,28,0.00
2013-6-21,88,85,84,48,46,41,28,25,21,29.91,29.88,15,8,20,0.00
2013-6-22,90,80,64,57,48,37,77,36,15,29.92,29.83,22,11,30,0.00
2013-6-23,72,38,57,64,-6,-100,100,51,77,29.84,29.80,13,6,20,0.00
2013-7-3,90,79,59,72,66,59,100,68,46,29.92,29.75,14,7,20,0.00
2013-7-4,104,86,64,70,58,45,100,44,20,29.76,29.67,21,12,29,0.00
2013-7-5,84,72,55,63,56,46,100,60,38,29.73,29.66,17,7,22,0.00
2013-7-6,81,64,54,64,58,46,100,84,54,29.79,29.71,15,4,23,0.00
2013-7-7,82,69,54,64,59,50,100,72,50,29.86,29.77,16,7,21,0.00
2013-7-8,84,69,57,63,54,-100,100,67,48,29.97,29.89,14,5,20,0.00
2013-7-9,93,84,54,61,54,48,100,40,22,30.00,29.91,12,5,17,0.00
2013-7-16,63,57,54,59,56,54,100,97,72,30.01,29.86,6,0,0,0.00
2013-7-17,81,67,55,64,60,48,100,79,54,30.08,30.00,14,5,18,0.00
2013-7-18,84,74,55,64,61,48,100,66,48,29.96,29.91,15,8,23,0.00
2013-7-19,88,75,54,68,62,54,100,66,45,29.94,29.80,14,7,20,0.00
2013-7-20,88,72,54,66,56,-100,100,65,45,29.84,29.71,14,7,21,0.00
2013-7-21,82,73,54,63,58,45,100,61,42,29.89,29.75,16,8,25,0.00
2013-7-22,84,73,54,63,58,48,100,62,39,29.96,29.89,14,6,21,0.00
2013-7-23,79,68,61,64,61,59,100,81,50,29.99,29.92,8,3,0,0.00
2013-7-26,81,67,54,64,59,48,100,78,57,30.08,29.98,14,9,21,0.00
2013-7-27,61,57,54,61,56,52,100,99,93,29.98,29.86,7,4,0,0.00
2013-7-28,63,57,54,61,56,48,100,97,59,29.87,29.80,8,6,0,0.00
2013-7-29,61,58,54,61,56,46,100,96,59,30.00,29.94,8,3,0,0.00
2013-7-30,59,55,54,59,54,48,100,98,76,30.05,30.01,8,2,0,0.00
2013-7-31,79,72,63,64,58,50,77,60,46,29.99,29.95,8,6,0,0.00
2013-8-1,81,72,52,61,56,50,100,60,34,30.02,29.93,14,6,18,0.00
2013-8-3,81,64,52,63,56,45,100,79,47,29.95,29.89,14,6,23,0.00
2013-8-4,75,62,54,61,56,46,100,85,60,29.99,29.92,15,7,22,0.00
2013-8-5,73,61,54,61,55,45,100,83,62,29.99,29.92,12,8,17,0.00
2013-8-6,57,56,55,57,56,55,100,100,100,30.03,30.01,6,3,0,0.00
2013-8-7,63,56,55,63,55,45,100,95,66,30.09,30.02,6,0,0,0.00
2013-8-8,61,58,55,61,56,48,100,96,63,30.03,29.93,7,4,0,0.00
2013-8-9,63,56,54,61,56,54,100,98,82,29.99,29.93,14,3,0,0.00
2013-8-14,93,68,52,64,51,-100,100,63,26,29.96,29.85,15,3,22,0.00
2013-8-15,90,67,57,70,40,-100,100,64,49,29.94,29.87,14,5,18,0.00
2013-8-16,91,74,61,66,52,-100,100,57,35,29.96,29.90,13,6,21,0.00
2013-8-17,90,78,55,64,58,-100,100,55,35,29.95,29.82,12,5,16,0.00
2013-8-18,97,80,57,66,62,54,100,59,32,29.87,29.75,18,4,23,0.00
2013-8-19,88,59,59,64,19,-100,100,52,45,29.89,29.80,12,4,16,0.00
2013-8-20,82,62,57,64,55,-100,100,84,51,29.90,29.80,12,3,21,0.00
2013-8-21,79,64,55,63,60,55,100,89,57,29.94,29.84,14,4,23,0.00
2013-8-22,61,57,54,61,56,46,100,99,67,29.97,29.90,5,0,0,0.00
2013-8-23,82,64,54,64,58,54,100,84,54,29.92,29.78,13,3,16,0.00
2013-8-24,86,70,54,63,55,-100,100,67,42,29.85,29.80,12,-20,22,0.00
2013-8-25,81,67,57,64,60,55,100,83,41,29.93,29.87,14,4,18,0.00
2013-8-26,86,70,59,64,58,50,100,70,30,30.00,29.87,13,3,18,0.00
2013-8-27,82,64,54,61,56,48,100,78,48,29.90,29.84,7,1,0,0.00
2013-8-28,84,74,63,70,66,57,100,79,58,29.93,29.84,14,6,20,0.00
2013-8-29,88,79,61,70,65,54,100,66,48,30.03,29.93,13,-45,17,0.00
2013-8-30,93,82,61,64,60,55,100,50,29,30.02,29.88,13,7,16,0.00
2013-8-31,88,71,57,63,55,-100,100,65,33,29.95,29.85,14,6,21,0.00
2013-9-1,84,72,55,64,60,54,100,70,45,29.93,29.84,12,5,20,0.00
2013-9-12,66,62,57,66,62,52,100,99,63,29.98,29.89,7,0,0,0.00
2013-9-13,84,68,57,64,60,54,100,79,48,29.90,29.73,10,3,16,0.00
2013-9-14,82,64,54,64,52,-100,100,76,54,29.76,29.70,10,4,0,0.00
2013-9-15,82,68,50,64,58,43,100,75,48,29.84,29.76,10,4,16,0.00
2013-9-16,88,72,57,64,59,55,100,66,37,29.85,29.74,16,7,21,0.00
2013-9-17,77,68,54,57,55,45,100,66,46,29.88,29.79,20,11,29,0.00
2013-9-18,72,67,61,55,50,48,82,57,43,29.88,29.83,14,9,18,0.00
2013-9-19,90,76,57,54,47,30,77,41,14,29.84,29.73,8,3,0,0.00
2013-9-20,77,62,48,64,57,37,100,86,54,29.82,29.76,8,3,0,0.00
2013-9-22,72,62,55,59,55,52,100,81,49,29.96,29.88,12,4,17,0.00
2013-9-23,84,76,55,64,59,54,100,58,34,30.00,29.89,10,6,15,0.00
2013-9-24,79,69,61,61,54,48,93,61,38,29.97,29.88,18,12,27,0.00
2013-9-25,72,63,52,54,46,43,100,57,35,29.94,29.82,18,12,27,0.00
2013-9-26,75,65,52,48,43,37,87,49,25,30.00,29.85,15,9,21,0.00
2013-9-27,81,69,55,50,42,32,81,41,17,30.09,29.99,9,4,0,0.00
2013-9-28,81,65,46,61,46,36,100,60,19,30.08,29.98,9,2,0,0.00
2013-9-29,66,61,55,66,61,55,100,100,100,30.08,30.03,8,4,0,0.00
2013-9-30,73,68,63,70,67,63,100,95,88,30.03,29.96,10,6,15,0.00
2013-10-1,75,65,61,52,51,46,72,63,35,29.94,29.93,13,12,20,0.00
2013-10-2,75,67,57,54,46,43,77,48,33,30.02,29.93,18,13,27,0.00
2013-10-3,75,62,54,45,37,25,62,44,15,30.08,29.98,25,13,32,0.00
2013-10-4,82,69,57,30,28,27,35,22,12,30.08,30.01,15,6,20,0.00
2013-10-5,84,63,45,37,34,25,70,38,11,30.19,30.08,7,-33,0,0.00
2013-10-6,84,62,45,43,37,34,81,45,16,30.13,30.00,8,-462,0,0.00
2013-10-7,84,66,45,48,38,28,81,43,16,30.01,29.85,12,3,17,0.00
2013-10-8,79,64,54,50,48,45,87,57,31,29.90,29.71,15,8,21,0.00
2013-10-26,82,60,41,54,43,-100,100,65,26,30.12,30.00,7,1,0,0.00
2013-10-27,61,48,41,55,43,32,100,84,61,30.02,29.63,14,3,22,0.00
2013-10-28,66,58,48,52,41,-100,100,63,42,29.79,29.66,9,3,0,0.00
2013-10-29,64,52,43,54,48,36,100,87,59,30.05,29.81,7,1,0,0.00
2013-10-30,68,54,37,50,44,34,100,71,51,30.14,30.05,9,2,0,0.00
2013-10-31,75,62,43,54,48,43,100,62,38,30.13,30.05,7,2,0,0.00
2013-11-1,79,64,43,55,47,32,100,59,34,30.12,30.00,8,2,0,0.00
2013-11-2,73,58,45,54,44,-100,100,66,33,30.01,29.89,20,7,27,0.00
2013-11-3,63,54,48,45,38,30,81,56,29,30.05,29.93,20,14,30,0.00
2013-11-4,70,56,45,43,37,30,81,52,22,30.09,29.92,21,12,27,0.00
2013-11-5,77,63,46,46,41,37,81,49,25,30.21,30.09,10,2,15,0.00
2013-11-6,75,60,45,52,44,39,100,63,32,30.24,30.15,9,1,0,0.00
2013-11-22,73,65,54,21,16,9,24,15,10,30.01,29.91,18,5,35,0.00
2013-11-23,70,59,43,37,22,-100,81,28,13,30.07,29.92,17,4,23,0.00
2013-11-24,64,51,34,46,39,19,100,68,36,30.24,30.10,9,1,0,0.00
2013-11-25,64,45,34,48,40,30,100,85,42,30.28,30.24,7,1,0,0.00
2013-11-26,63,45,36,48,41,34,100,89,45,30.26,30.04,5,0,0,0.00
2013-11-27,66,46,36,50,41,30,100,85,52,30.02,29.83,6,0,0,0.00
2013-11-28,72,51,37,48,44,36,100,81,35,30.06,29.86,7,0,0,0.00
2013-11-29,68,50,37,50,43,36,100,80,45,30.20,30.06,8,0,0,0.00
2013-11-30,70,52,41,50,42,-100,100,77,40,30.24,30.17,6,1,0,0.00
2013-12-1,72,52,39,54,46,37,100,84,49,30.32,30.21,7,1,0,0.00
2013-12-2,57,51,43,55,48,41,100,91,66,30.19,29.92,10,1,0,0.00
2013-12-3,55,50,41,54,38,27,100,66,32,29.93,29.83,17,10,25,0.00
2013-12-4,54,43,30,36,30,25,100,66,32,30.07,29.98,6,0,0,0.00
2013-12-5,50,38,25,34,28,23,100,73,36,30.13,30.06,8,1,0,0.00
2013-12-6,45,34,23,39,30,16,100,89,56,30.15,29.94,8,1,0,0.00
2013-12-7,45,37,28,39,27,-100,100,75,48,30.23,29.95,17,5,30,0.00
2013-12-8,48,37,27,30,25,18,100,65,36,30.29,30.21,6,0,0,0.00
2013-12-9,52,34,25,34,13,-100,100,62,40,30.40,30.28,7,1,0,0.00
2013-12-10,54,20,28,36,-39,-100,100,29,40,30.40,30.19,0,0,0,0.00
2013-12-11,59,40,27,43,33,18,100,80,38,30.21,30.16,6,1,0,0.00
2013-12-12,52,35,27,41,32,19,100,91,53,30.22,30.16,0,0,0,0.00
2013-12-13,64,44,28,45,35,21,100,77,39,30.30,30.21,0,0,0,0.00
2013-12-14,64,44,34,46,34,-100,100,77,45,30.37,30.28,7,1,0,0.00
2013-12-15,63,41,30,48,37,30,100,88,48,30.36,30.23,0,0,0,0.00
2013-12-16,63,43,32,46,38,25,100,84,48,30.23,30.12,10,1,15,0.00
2013-12-22,68,48,39,52,41,-100,100,83,52,30.28,30.07,8,1,0,0.00
2013-12-23,68,48,36,48,42,36,100,83,45,30.35,30.27,6,1,0,0.00
2013-12-24,70,47,37,52,42,36,100,86,49,30.33,30.20,6,0,0,0.00
2013-12-25,70,48,34,48,40,34,100,78,35,30.27,30.18,0,0,0,0.00
2013-12-26,70,47,30,43,34,25,100,65,26,30.23,30.14,5,0,0,0.00
2013-12-27,57,46,34,45,40,34,100,81,58,30.22,30.13,5,0,0,0.00
2013-12-28,73,52,34,43,32,-100,100,54,26,30.13,30.02,7,1,0,0.00
2014-1-2,64,47,34,45,40,34,100,79,42,30.15,30.05,7,0,0,0.00